createdAt,value
2018-01-30T00:00:20.523Z,1021.51
2018-01-30T00:01:20.524Z,1021.57
2018-01-30T00:02:20.527Z,1021.55
2018-01-30T00:03:20.525Z,1021.51
2018-01-30T00:04:20.532Z,1021.58
2018-01-30T00:05:20.543Z,1021.60
2018-01-30T00:06:20.533Z,1021.68
2018-01-30T00:07:20.538Z,1021.65
2018-01-30T00:08:20.544Z,1021.64
2018-01-30T00:09:20.543Z,1021.66
2018-01-30T00:10:20.591Z,1021.76
2018-01-30T00:11:20.546Z,1021.74
2018-01-30T00:12:20.557Z,1021.75
2018-01-30T00:13:20.570Z,1021.70
2018-01-30T00:14:20.579Z,1021.74
2018-01-30T00:15:20.558Z,1021.74
2018-01-30T00:16:20.558Z,1021.78
2018-01-30T00:17:20.567Z,1021.79
2018-01-30T00:18:20.572Z,1021.82
2018-01-30T00:19:20.569Z,1021.85
2018-01-30T00:20:20.574Z,1021.91
2018-01-30T00:21:20.574Z,1021.86
2018-01-30T00:22:20.579Z,1021.83
2018-01-30T00:23:20.578Z,1021.81
2018-01-30T00:24:20.586Z,1021.82
2018-01-30T00:25:20.584Z,1021.81
2018-01-30T00:26:20.591Z,1021.86
2018-01-30T00:27:20.588Z,1021.89
2018-01-30T00:28:20.596Z,1021.84
2018-01-30T00:29:20.597Z,1021.87
2018-01-30T00:30:20.600Z,1021.90
2018-01-30T00:31:20.600Z,1021.97
2018-01-30T00:32:20.605Z,1022.01
2018-01-30T00:33:20.604Z,1022.01
2018-01-30T00:34:20.613Z,1022.03
2018-01-30T00:35:20.609Z,1022.01
2018-01-30T00:36:20.619Z,1021.99
2018-01-30T00:37:20.618Z,1022.01
2018-01-30T00:38:20.618Z,1022.02
2018-01-30T00:39:20.626Z,1022.08
2018-01-30T00:40:20.626Z,1022.06
2018-01-30T00:41:20.629Z,1022.08
2018-01-30T00:42:20.630Z,1022.12
2018-01-30T00:43:20.637Z,1022.14
2018-01-30T00:44:20.643Z,1022.11
2018-01-30T00:45:20.640Z,1022.16
2018-01-30T00:46:20.637Z,1022.16
2018-01-30T00:47:20.646Z,1022.16
2018-01-30T00:48:20.650Z,1022.19
2018-01-30T00:49:20.649Z,1022.21
2018-01-30T00:50:20.651Z,1022.19
2018-01-30T00:51:20.660Z,1022.19
2018-01-30T00:52:20.660Z,1022.18
2018-01-30T00:53:21.252Z,1022.14
2018-01-30T00:54:20.660Z,1022.15
2018-01-30T00:55:20.667Z,1022.15
2018-01-30T00:56:20.672Z,1022.12
2018-01-30T00:57:20.669Z,1022.17
2018-01-30T00:58:20.671Z,1022.16
2018-01-30T00:59:20.678Z,1022.14
2018-01-30T01:00:20.683Z,1022.16
2018-01-30T01:01:20.682Z,1022.18
2018-01-30T01:02:20.683Z,1022.17
2018-01-30T01:03:20.691Z,1022.17
2018-01-30T01:04:20.694Z,1022.16
2018-01-30T01:05:20.691Z,1022.13
2018-01-30T01:06:20.694Z,1022.17
2018-01-30T01:07:20.748Z,1022.17
2018-01-30T01:08:20.699Z,1022.21
2018-01-30T01:09:20.705Z,1022.18
2018-01-30T01:10:20.704Z,1022.15
2018-01-30T01:11:20.711Z,1022.15
2018-01-30T01:12:20.707Z,1022.14
2018-01-30T01:13:20.713Z,1022.14
2018-01-30T01:14:20.714Z,1022.19
2018-01-30T01:15:20.721Z,1022.22
2018-01-30T01:16:20.717Z,1022.22
2018-01-30T01:17:20.725Z,1022.14
2018-01-30T01:18:20.728Z,1022.22
2018-01-30T01:19:20.732Z,1022.20
2018-01-30T01:20:20.729Z,1022.19
2018-01-30T01:21:20.735Z,1022.18
2018-01-30T01:22:20.735Z,1022.21
2018-01-30T01:23:20.741Z,1022.21
2018-01-30T01:24:20.738Z,1022.26
2018-01-30T01:25:20.745Z,1022.31
2018-01-30T01:26:20.749Z,1022.30
2018-01-30T01:27:20.748Z,1022.25
2018-01-30T01:28:20.746Z,1022.22
2018-01-30T01:29:20.760Z,1022.24
2018-01-30T01:30:20.754Z,1022.28
2018-01-30T01:31:20.756Z,1022.25
2018-01-30T01:32:20.759Z,1022.28
2018-01-30T01:33:20.761Z,1022.31
2018-01-30T01:34:20.766Z,1022.30
2018-01-30T01:35:20.769Z,1022.32
2018-01-30T01:36:20.770Z,1022.30
2018-01-30T01:37:20.772Z,1022.32
2018-01-30T01:38:20.776Z,1022.29
2018-01-30T01:39:20.773Z,1022.32
2018-01-30T01:40:20.777Z,1022.26
2018-01-30T01:41:20.777Z,1022.23
2018-01-30T01:42:20.782Z,1022.20
2018-01-30T01:43:20.786Z,1022.19
2018-01-30T01:44:20.786Z,1022.21
2018-01-30T01:45:20.788Z,1022.22
2018-01-30T01:46:20.791Z,1022.25
2018-01-30T01:47:20.790Z,1022.27
2018-01-30T01:48:20.796Z,1022.27
2018-01-30T01:49:20.797Z,1022.27
2018-01-30T01:50:20.796Z,1022.24
2018-01-30T01:51:20.806Z,1022.29
2018-01-30T01:52:20.808Z,1022.26
2018-01-30T01:53:20.806Z,1022.24
2018-01-30T01:54:20.808Z,1022.24
2018-01-30T01:55:20.813Z,1022.23
2018-01-30T01:56:20.812Z,1022.23
2018-01-30T01:57:20.817Z,1022.23
2018-01-30T01:58:20.819Z,1022.20
2018-01-30T01:59:20.822Z,1022.20
2018-01-30T02:00:20.821Z,1022.17
2018-01-30T02:01:20.825Z,1022.15
2018-01-30T02:02:20.828Z,1022.16
2018-01-30T02:03:20.824Z,1022.13
2018-01-30T02:04:20.829Z,1022.14
2018-01-30T02:05:20.830Z,1022.11
2018-01-30T02:06:20.833Z,1022.10
2018-01-30T02:07:20.843Z,1022.10
2018-01-30T02:08:20.841Z,1022.08
2018-01-30T02:09:20.842Z,1022.08
2018-01-30T02:10:20.841Z,1022.12
2018-01-30T02:11:20.845Z,1022.07
2018-01-30T02:12:20.849Z,1022.05
2018-01-30T02:13:20.848Z,1022.04
2018-01-30T02:14:20.849Z,1022.05
2018-01-30T02:15:20.857Z,1022.04
2018-01-30T02:16:20.861Z,1022.00
2018-01-30T02:17:20.855Z,1022.01
2018-01-30T02:18:20.858Z,1022.03
2018-01-30T02:19:20.865Z,1022.05
2018-01-30T02:20:20.861Z,1022.04
2018-01-30T02:21:20.867Z,1022.12
2018-01-30T02:22:20.865Z,1022.07
2018-01-30T02:23:20.874Z,1022.04
2018-01-30T02:24:20.868Z,1022.05
2018-01-30T02:25:20.876Z,1022.04
2018-01-30T02:26:20.875Z,1022.06
2018-01-30T02:27:21.779Z,1022.05
2018-01-30T02:28:20.877Z,1022.02
2018-01-30T02:29:20.882Z,1021.98
2018-01-30T02:30:20.881Z,1022.02
2018-01-30T02:31:20.884Z,1022.01
2018-01-30T02:32:20.883Z,1021.96
2018-01-30T02:33:20.888Z,1021.95
2018-01-30T02:34:20.891Z,1021.93
2018-01-30T02:35:20.889Z,1021.92
2018-01-30T02:36:20.898Z,1021.90
2018-01-30T02:37:20.896Z,1021.90
2018-01-30T02:38:20.900Z,1021.90
2018-01-30T02:39:20.900Z,1021.97
2018-01-30T02:40:20.904Z,1021.97
2018-01-30T02:41:20.900Z,1021.96
2018-01-30T02:42:20.910Z,1021.96
2018-01-30T02:43:20.905Z,1021.99
2018-01-30T02:44:20.911Z,1021.96
2018-01-30T02:45:20.913Z,1022.00
2018-01-30T02:46:20.911Z,1022.05
2018-01-30T02:47:20.916Z,1021.99
2018-01-30T02:48:20.918Z,1022.01
2018-01-30T02:49:20.916Z,1022.02
2018-01-30T02:50:20.919Z,1022.03
2018-01-30T02:51:20.918Z,1022.05
2018-01-30T02:52:20.924Z,1022.10
2018-01-30T02:53:20.926Z,1022.12
2018-01-30T02:54:20.928Z,1022.14
2018-01-30T02:55:20.928Z,1022.15
2018-01-30T02:56:20.925Z,1022.16
2018-01-30T02:57:20.935Z,1022.18
2018-01-30T02:58:20.933Z,1022.21
2018-01-30T02:59:20.933Z,1022.18
2018-01-30T03:00:20.935Z,1022.19
2018-01-30T03:01:20.939Z,1022.17
2018-01-30T03:02:20.938Z,1022.16
2018-01-30T03:03:20.941Z,1022.19
2018-01-30T03:04:20.947Z,1022.22
2018-01-30T03:05:20.948Z,1022.24
2018-01-30T03:06:20.945Z,1022.25
2018-01-30T03:07:20.949Z,1022.23
2018-01-30T03:08:20.949Z,1022.21
2018-01-30T03:09:20.954Z,1022.21
2018-01-30T03:10:20.958Z,1022.22
2018-01-30T03:11:20.952Z,1022.21
2018-01-30T03:12:20.956Z,1022.21
2018-01-30T03:13:20.962Z,1022.24
2018-01-30T03:14:20.959Z,1022.24
2018-01-30T03:15:20.961Z,1022.28
2018-01-30T03:16:20.966Z,1022.30
2018-01-30T03:17:20.968Z,1022.32
2018-01-30T03:18:20.968Z,1022.32
2018-01-30T03:19:20.966Z,1022.32
2018-01-30T03:20:20.969Z,1022.32
2018-01-30T03:21:23.493Z,1022.37
2018-01-30T03:22:22.583Z,1022.34
2018-01-30T03:23:20.979Z,1022.32
2018-01-30T03:24:20.974Z,1022.30
2018-01-30T03:25:20.978Z,1022.27
2018-01-30T03:26:20.978Z,1022.29
2018-01-30T03:27:20.985Z,1022.26
2018-01-30T03:28:20.980Z,1022.28
2018-01-30T03:29:20.988Z,1022.28
2018-01-30T03:30:20.984Z,1022.30
2018-01-30T03:31:20.990Z,1022.32
2018-01-30T03:32:20.988Z,1022.33
2018-01-30T03:33:20.992Z,1022.32
2018-01-30T03:34:20.996Z,1022.31
2018-01-30T03:35:20.991Z,1022.30
2018-01-30T03:36:21.000Z,1022.30
2018-01-30T03:37:20.997Z,1022.33
2018-01-30T03:38:21.003Z,1022.35
2018-01-30T03:39:21.002Z,1022.35
2018-01-30T03:40:21.005Z,1022.35
2018-01-30T03:41:21.000Z,1022.33
2018-01-30T03:42:21.008Z,1022.32
2018-01-30T03:43:21.003Z,1022.36
2018-01-30T03:44:21.009Z,1022.33
2018-01-30T03:45:21.007Z,1022.33
2018-01-30T03:46:21.014Z,1022.30
2018-01-30T03:47:21.010Z,1022.29
2018-01-30T03:48:21.012Z,1022.31
2018-01-30T03:49:21.015Z,1022.31
2018-01-30T03:50:21.012Z,1022.29
2018-01-30T03:51:21.019Z,1022.27
2018-01-30T03:52:21.022Z,1022.28
2018-01-30T03:53:21.024Z,1022.27
2018-01-30T03:54:21.020Z,1022.23
2018-01-30T03:55:21.022Z,1022.21
2018-01-30T03:56:21.027Z,1022.21
2018-01-30T03:57:21.030Z,1022.25
2018-01-30T03:58:21.029Z,1022.25
2018-01-30T03:59:21.029Z,1022.28
2018-01-30T04:00:21.029Z,1022.32
2018-01-30T04:01:21.037Z,1022.36
2018-01-30T04:02:21.038Z,1022.39
2018-01-30T04:03:21.035Z,1022.41
2018-01-30T04:04:21.043Z,1022.42
2018-01-30T04:05:21.033Z,1022.38
2018-01-30T04:06:21.041Z,1022.37
2018-01-30T04:07:21.051Z,1022.33
2018-01-30T04:08:21.038Z,1022.31
2018-01-30T04:09:21.045Z,1022.32
2018-01-30T04:10:21.042Z,1022.35
2018-01-30T04:11:21.050Z,1022.34
2018-01-30T04:12:21.045Z,1022.40
2018-01-30T04:13:21.052Z,1022.44
2018-01-30T04:14:21.052Z,1022.45
2018-01-30T04:15:21.049Z,1022.42
2018-01-30T04:16:21.055Z,1022.41
2018-01-30T04:17:21.057Z,1022.38
2018-01-30T04:18:21.058Z,1022.42
2018-01-30T04:19:21.056Z,1022.45
2018-01-30T04:20:21.056Z,1022.50
2018-01-30T04:21:21.062Z,1022.50
2018-01-30T04:22:21.060Z,1022.51
2018-01-30T04:23:21.061Z,1022.49
2018-01-30T04:24:21.066Z,1022.49
2018-01-30T04:25:21.065Z,1022.44
2018-01-30T04:26:21.068Z,1022.41
2018-01-30T04:27:21.072Z,1022.37
2018-01-30T04:28:21.070Z,1022.33
2018-01-30T04:29:21.074Z,1022.32
2018-01-30T04:30:21.070Z,1022.36
2018-01-30T04:31:21.075Z,1022.39
2018-01-30T04:32:21.074Z,1022.45
2018-01-30T04:33:21.078Z,1022.40
2018-01-30T04:34:21.076Z,1022.38
2018-01-30T04:35:21.081Z,1022.40
2018-01-30T04:36:21.079Z,1022.37
2018-01-30T04:37:21.099Z,1022.39
2018-01-30T04:38:21.089Z,1022.40
2018-01-30T04:39:21.086Z,1022.37
2018-01-30T04:40:21.083Z,1022.37
2018-01-30T04:41:21.088Z,1022.39
2018-01-30T04:42:21.102Z,1022.38
2018-01-30T04:43:21.092Z,1022.31
2018-01-30T04:44:21.094Z,1022.27
2018-01-30T04:45:21.091Z,1022.27
2018-01-30T04:46:21.092Z,1022.29
2018-01-30T04:47:21.096Z,1022.31
2018-01-30T04:48:21.098Z,1022.41
2018-01-30T04:49:21.095Z,1022.39
2018-01-30T04:50:21.097Z,1022.45
2018-01-30T04:51:21.123Z,1022.44
2018-01-30T04:52:21.103Z,1022.43
2018-01-30T04:53:21.102Z,1022.40
2018-01-30T04:54:21.102Z,1022.38
2018-01-30T04:55:21.105Z,1022.38
2018-01-30T04:56:21.108Z,1022.46
2018-01-30T04:57:21.104Z,1022.45
2018-01-30T04:58:21.108Z,1022.43
2018-01-30T04:59:21.114Z,1022.43
2018-01-30T05:00:21.110Z,1022.44
2018-01-30T05:01:21.115Z,1022.46
2018-01-30T05:02:21.114Z,1022.42
2018-01-30T05:03:21.117Z,1022.42
2018-01-30T05:04:21.114Z,1022.42
2018-01-30T05:05:21.119Z,1022.39
2018-01-30T05:06:21.118Z,1022.41
2018-01-30T05:07:21.119Z,1022.37
2018-01-30T05:08:21.125Z,1022.31
2018-01-30T05:09:21.122Z,1022.34
2018-01-30T05:10:21.121Z,1022.31
2018-01-30T05:11:21.126Z,1022.35
2018-01-30T05:12:21.130Z,1022.37
2018-01-30T05:13:21.809Z,1022.38
2018-01-30T05:14:21.124Z,1022.43
2018-01-30T05:15:21.134Z,1022.45
2018-01-30T05:16:21.132Z,1022.46
2018-01-30T05:17:21.130Z,1022.49
2018-01-30T05:18:21.137Z,1022.51
2018-01-30T05:19:21.135Z,1022.53
2018-01-30T05:20:21.139Z,1022.55
2018-01-30T05:21:21.137Z,1022.49
2018-01-30T05:22:21.136Z,1022.52
2018-01-30T05:23:21.137Z,1022.50
2018-01-30T05:24:21.144Z,1022.50
2018-01-30T05:25:21.142Z,1022.53
2018-01-30T05:26:21.143Z,1022.56
2018-01-30T05:27:21.144Z,1022.59
2018-01-30T05:28:21.151Z,1022.66
2018-01-30T05:29:21.150Z,1022.68
2018-01-30T05:30:21.149Z,1022.66
2018-01-30T05:31:21.149Z,1022.62
2018-01-30T05:32:21.151Z,1022.58
2018-01-30T05:33:21.157Z,1022.57
2018-01-30T05:34:21.153Z,1022.59
2018-01-30T05:35:21.159Z,1022.54
2018-01-30T05:36:21.157Z,1022.52
2018-01-30T05:37:21.161Z,1022.56
2018-01-30T05:38:21.158Z,1022.56
2018-01-30T05:39:21.165Z,1022.64
2018-01-30T05:40:21.165Z,1022.68
2018-01-30T05:41:21.171Z,1022.64
2018-01-30T05:42:21.165Z,1022.66
2018-01-30T05:43:21.170Z,1022.62
2018-01-30T05:44:22.425Z,1022.73
2018-01-30T05:45:21.174Z,1022.70
2018-01-30T05:46:21.172Z,1022.70
2018-01-30T05:47:21.177Z,1022.74
2018-01-30T05:48:21.180Z,1022.74
2018-01-30T05:49:21.216Z,1022.73
2018-01-30T05:50:21.177Z,1022.72
2018-01-30T05:51:21.180Z,1022.76
2018-01-30T05:52:21.183Z,1022.76
2018-01-30T05:53:21.185Z,1022.69
2018-01-30T05:54:21.182Z,1022.66
2018-01-30T05:55:21.190Z,1022.64
2018-01-30T05:56:21.191Z,1022.64
2018-01-30T05:57:21.198Z,1022.62
2018-01-30T05:58:21.218Z,1022.65
2018-01-30T05:59:21.237Z,1022.68
2018-01-30T06:00:21.238Z,1022.71
2018-01-30T06:01:21.228Z,1022.71
2018-01-30T06:02:21.195Z,1022.69
2018-01-30T06:03:21.200Z,1022.69
2018-01-30T06:04:21.215Z,1022.73
2018-01-30T06:05:21.202Z,1022.74
2018-01-30T06:06:21.200Z,1022.73
2018-01-30T06:07:21.207Z,1022.74
2018-01-30T06:08:21.210Z,1022.70
2018-01-30T06:09:21.204Z,1022.68
2018-01-30T06:10:21.207Z,1022.70
2018-01-30T06:11:21.214Z,1022.70
2018-01-30T06:12:21.215Z,1022.70
2018-01-30T06:13:21.233Z,1022.69
2018-01-30T06:14:21.216Z,1022.63
2018-01-30T06:15:21.223Z,1022.65
2018-01-30T06:16:21.219Z,1022.65
2018-01-30T06:17:21.218Z,1022.65
2018-01-30T06:18:21.221Z,1022.67
2018-01-30T06:19:21.224Z,1022.71
2018-01-30T06:20:21.226Z,1022.74
2018-01-30T06:21:21.277Z,1022.75
2018-01-30T06:22:21.223Z,1022.78
2018-01-30T06:23:21.230Z,1022.82
2018-01-30T06:24:21.232Z,1022.76
2018-01-30T06:25:21.230Z,1022.72
2018-01-30T06:26:21.233Z,1022.68
2018-01-30T06:27:21.236Z,1022.69
2018-01-30T06:28:21.238Z,1022.72
2018-01-30T06:29:21.273Z,1022.76
2018-01-30T06:30:21.243Z,1022.81
2018-01-30T06:31:21.247Z,1022.81
2018-01-30T06:32:21.248Z,1022.83
2018-01-30T06:33:21.238Z,1022.78
2018-01-30T06:34:21.245Z,1022.70
2018-01-30T06:35:21.248Z,1022.65
2018-01-30T06:36:21.253Z,1022.64
2018-01-30T06:37:21.249Z,1022.76
2018-01-30T06:38:21.248Z,1022.81
2018-01-30T06:39:21.245Z,1022.81
2018-01-30T06:40:21.254Z,1022.83
2018-01-30T06:41:21.259Z,1022.81
2018-01-30T06:42:21.260Z,1022.69
2018-01-30T06:43:21.258Z,1022.66
2018-01-30T06:44:21.272Z,1022.63
2018-01-30T06:45:21.278Z,1022.60
2018-01-30T06:46:21.264Z,1022.62
2018-01-30T06:47:21.270Z,1022.62
2018-01-30T06:48:21.264Z,1022.65
2018-01-30T06:49:21.266Z,1022.67
2018-01-30T06:50:21.271Z,1022.64
2018-01-30T06:51:21.267Z,1022.61
2018-01-30T06:52:21.272Z,1022.61
2018-01-30T06:53:21.319Z,1022.60
2018-01-30T06:54:21.278Z,1022.63
2018-01-30T06:55:21.281Z,1022.62
2018-01-30T06:56:21.271Z,1022.61
2018-01-30T06:57:21.274Z,1022.59
2018-01-30T06:58:21.277Z,1022.63
2018-01-30T06:59:21.276Z,1022.61
2018-01-30T07:00:21.280Z,1022.57
2018-01-30T07:01:21.291Z,1022.58
2018-01-30T07:02:21.290Z,1022.56
2018-01-30T07:03:21.285Z,1022.57
2018-01-30T07:04:21.282Z,1022.65
2018-01-30T07:05:21.289Z,1022.65
2018-01-30T07:06:21.283Z,1022.71
2018-01-30T07:07:21.314Z,1022.74
2018-01-30T07:08:21.288Z,1022.77
2018-01-30T07:09:21.293Z,1022.74
2018-01-30T07:10:21.293Z,1022.80
2018-01-30T07:11:21.414Z,1022.80
2018-01-30T07:12:21.293Z,1022.83
2018-01-30T07:13:21.300Z,1022.84
2018-01-30T07:14:21.302Z,1022.90
2018-01-30T07:15:21.298Z,1022.89
2018-01-30T07:16:21.297Z,1022.88
2018-01-30T07:17:21.304Z,1022.90
2018-01-30T07:18:21.301Z,1022.88
2018-01-30T07:19:21.302Z,1022.87
2018-01-30T07:20:21.305Z,1022.84
2018-01-30T07:21:21.310Z,1022.85
2018-01-30T07:22:21.309Z,1022.87
2018-01-30T07:23:21.307Z,1022.85
2018-01-30T07:24:21.309Z,1022.90
2018-01-30T07:25:21.316Z,1022.97
2018-01-30T07:26:21.310Z,1022.93
2018-01-30T07:27:21.316Z,1022.96
2018-01-30T07:28:21.316Z,1022.95
2018-01-30T07:29:21.322Z,1022.89
2018-01-30T07:30:21.317Z,1022.89
2018-01-30T07:31:21.318Z,1022.85
2018-01-30T07:32:21.440Z,1022.85
2018-01-30T07:33:21.327Z,1022.87
2018-01-30T07:34:21.322Z,1022.86
2018-01-30T07:35:21.326Z,1022.92
2018-01-30T07:36:21.325Z,1022.96
2018-01-30T07:37:21.326Z,1022.97
2018-01-30T07:38:21.326Z,1023.05
2018-01-30T07:39:21.330Z,1023.05
2018-01-30T07:40:21.333Z,1023.08
2018-01-30T07:41:21.332Z,1023.11
2018-01-30T07:42:21.334Z,1023.15
2018-01-30T07:43:21.336Z,1023.13
2018-01-30T07:44:21.339Z,1023.14
2018-01-30T07:45:21.336Z,1023.17
2018-01-30T07:46:21.342Z,1023.17
2018-01-30T07:47:21.459Z,1023.17
2018-01-30T07:48:21.372Z,1023.13
2018-01-30T07:49:21.344Z,1023.14
2018-01-30T07:50:21.347Z,1023.12
2018-01-30T07:51:21.344Z,1023.13
2018-01-30T07:52:21.353Z,1023.11
2018-01-30T07:53:21.349Z,1023.13
2018-01-30T07:54:21.350Z,1023.17
2018-01-30T07:55:21.354Z,1023.18
2018-01-30T07:56:21.357Z,1023.19
2018-01-30T07:57:21.355Z,1023.22
2018-01-30T07:58:21.355Z,1023.16
2018-01-30T07:59:21.412Z,1023.10
2018-01-30T08:00:21.360Z,1023.17
2018-01-30T08:01:21.360Z,1023.08
2018-01-30T08:02:21.365Z,1023.11
2018-01-30T08:03:21.364Z,1023.11
2018-01-30T08:04:21.367Z,1023.16
2018-01-30T08:05:21.369Z,1023.17
2018-01-30T08:06:21.366Z,1023.15
2018-01-30T08:07:21.372Z,1023.14
2018-01-30T08:08:21.374Z,1023.11
2018-01-30T08:09:21.386Z,1023.09
2018-01-30T08:10:21.373Z,1023.09
2018-01-30T08:11:21.373Z,1023.10
2018-01-30T08:12:21.382Z,1023.13
2018-01-30T08:13:21.448Z,1023.15
2018-01-30T08:14:21.380Z,1023.15
2018-01-30T08:15:21.386Z,1023.16
2018-01-30T08:16:21.387Z,1023.16
2018-01-30T08:17:21.386Z,1023.12
2018-01-30T08:18:21.389Z,1023.11
2018-01-30T08:19:21.393Z,1023.10
2018-01-30T08:20:21.392Z,1023.18
2018-01-30T08:21:21.398Z,1023.20
2018-01-30T08:22:21.395Z,1023.28
2018-01-30T08:23:21.402Z,1023.28
2018-01-30T08:24:21.407Z,1023.26
2018-01-30T08:25:21.405Z,1023.23
2018-01-30T08:26:21.404Z,1023.21
2018-01-30T08:27:21.405Z,1023.23
2018-01-30T08:28:21.412Z,1023.22
2018-01-30T08:29:21.408Z,1023.28
2018-01-30T08:30:21.412Z,1023.30
2018-01-30T08:31:21.417Z,1023.36
2018-01-30T08:32:21.419Z,1023.34
2018-01-30T08:33:21.530Z,1023.30
2018-01-30T08:34:21.472Z,1023.33
2018-01-30T08:35:21.453Z,1023.29
2018-01-30T08:36:21.453Z,1023.26
2018-01-30T08:37:21.427Z,1023.27
2018-01-30T08:38:21.445Z,1023.27
2018-01-30T08:39:21.433Z,1023.32
2018-01-30T08:40:21.433Z,1023.25
2018-01-30T08:41:21.440Z,1023.26
2018-01-30T08:42:21.436Z,1023.23
2018-01-30T08:43:21.439Z,1023.22
2018-01-30T08:44:21.442Z,1023.24
2018-01-30T08:45:21.447Z,1023.29
2018-01-30T08:46:21.444Z,1023.26
2018-01-30T08:47:21.449Z,1023.29
2018-01-30T08:48:21.449Z,1023.34
2018-01-30T08:49:21.458Z,1023.30
2018-01-30T08:50:21.486Z,1023.31
2018-01-30T08:51:21.463Z,1023.29
2018-01-30T08:52:21.460Z,1023.29
2018-01-30T08:53:21.461Z,1023.28
2018-01-30T08:54:21.462Z,1023.26
2018-01-30T08:55:21.467Z,1023.21
2018-01-30T08:56:21.475Z,1023.27
2018-01-30T08:57:21.471Z,1023.26
2018-01-30T08:58:21.507Z,1023.21
2018-01-30T08:59:21.481Z,1023.30
2018-01-30T09:00:21.486Z,1023.31
2018-01-30T09:01:21.485Z,1023.36
2018-01-30T09:02:21.487Z,1023.40
2018-01-30T09:03:21.492Z,1023.42
2018-01-30T09:04:21.496Z,1023.44
2018-01-30T09:05:21.494Z,1023.47
2018-01-30T09:06:21.497Z,1023.42
2018-01-30T09:07:21.505Z,1023.41
2018-01-30T09:08:21.504Z,1023.36
2018-01-30T09:09:21.504Z,1023.37
2018-01-30T09:10:21.512Z,1023.41
2018-01-30T09:11:21.511Z,1023.38
2018-01-30T09:12:21.519Z,1023.35
2018-01-30T09:13:21.528Z,1023.34
2018-01-30T09:14:21.525Z,1023.25
2018-01-30T09:15:21.524Z,1023.29
2018-01-30T09:16:21.532Z,1023.26
2018-01-30T09:17:21.531Z,1023.23
2018-01-30T09:18:21.539Z,1023.25
2018-01-30T09:19:21.537Z,1023.27
2018-01-30T09:20:21.542Z,1023.33
2018-01-30T09:21:21.542Z,1023.45
2018-01-30T09:22:21.551Z,1023.31
2018-01-30T09:23:21.549Z,1023.21
2018-01-30T09:24:21.554Z,1023.37
2018-01-30T09:25:21.598Z,1023.34
2018-01-30T09:26:21.559Z,1023.63
2018-01-30T09:27:21.565Z,1023.36
2018-01-30T09:28:21.566Z,1023.32
2018-01-30T09:29:21.571Z,1023.39
2018-01-30T09:30:21.568Z,1023.23
2018-01-30T09:31:21.577Z,1023.22
2018-01-30T09:32:21.578Z,1023.28
2018-01-30T09:33:21.585Z,1023.13
2018-01-30T09:34:21.583Z,1023.16
2018-01-30T09:35:21.584Z,1023.19
2018-01-30T09:36:21.589Z,1023.20
2018-01-30T09:37:21.603Z,1023.21
2018-01-30T09:38:21.600Z,1023.14
2018-01-30T09:39:21.611Z,1023.21
2018-01-30T09:40:21.611Z,1023.19
2018-01-30T09:41:21.611Z,1023.18
2018-01-30T09:42:21.614Z,1023.22
2018-01-30T09:43:21.621Z,1023.17
2018-01-30T09:44:21.628Z,1023.18
2018-01-30T09:45:21.629Z,1023.19
2018-01-30T09:46:21.624Z,1023.20
2018-01-30T09:47:21.637Z,1023.15
2018-01-30T09:48:21.641Z,1023.17
2018-01-30T09:49:21.662Z,1023.15
2018-01-30T09:50:21.643Z,1023.12
2018-01-30T09:51:21.650Z,1023.11
2018-01-30T09:52:21.658Z,1023.11
2018-01-30T09:53:21.655Z,1023.12
2018-01-30T09:54:21.658Z,1023.15
2018-01-30T09:55:21.667Z,1023.13
2018-01-30T09:56:21.669Z,1023.16
2018-01-30T09:57:21.668Z,1023.14
2018-01-30T09:58:21.671Z,1023.12
2018-01-30T09:59:21.680Z,1023.09
2018-01-30T10:00:21.683Z,1023.01
2018-01-30T10:01:21.682Z,1023.03
2018-01-30T10:02:21.684Z,1023.10
2018-01-30T10:03:21.693Z,1023.12
2018-01-30T10:04:21.696Z,1023.13
2018-01-30T10:05:21.697Z,1023.14
2018-01-30T10:06:21.702Z,1023.16
2018-01-30T10:07:21.702Z,1023.15
2018-01-30T10:08:21.710Z,1023.12
2018-01-30T10:09:21.710Z,1023.13
2018-01-30T10:10:21.720Z,1023.15
2018-01-30T10:11:21.717Z,1023.12
2018-01-30T10:12:21.724Z,1023.20
2018-01-30T10:13:21.723Z,1023.18
2018-01-30T10:14:21.729Z,1023.23
2018-01-30T10:15:21.729Z,1023.17
2018-01-30T10:16:21.739Z,1023.20
2018-01-30T10:17:21.739Z,1023.50
2018-01-30T10:18:21.742Z,1023.16
2018-01-30T10:19:21.743Z,1023.20
2018-01-30T10:20:21.747Z,1023.25
2018-01-30T10:21:21.754Z,1023.22
2018-01-30T10:22:21.766Z,1023.20
2018-01-30T10:23:21.762Z,1023.22
2018-01-30T10:24:21.766Z,1023.20
2018-01-30T10:25:21.772Z,1023.20
2018-01-30T10:26:21.771Z,1023.27
2018-01-30T10:27:21.778Z,1023.28
2018-01-30T10:28:21.780Z,1023.33
2018-01-30T10:29:21.791Z,1023.31
2018-01-30T10:30:21.790Z,1023.29
2018-01-30T10:31:21.794Z,1023.25
2018-01-30T10:32:21.796Z,1023.31
2018-01-30T10:33:21.800Z,1023.30
2018-01-30T10:34:21.805Z,1023.30
2018-01-30T10:35:21.814Z,1023.40
2018-01-30T10:36:21.814Z,1023.38
2018-01-30T10:37:21.816Z,1023.29
2018-01-30T10:38:21.819Z,1023.33
2018-01-30T10:39:21.828Z,1023.37
2018-01-30T10:40:21.831Z,1023.31
2018-01-30T10:41:21.834Z,1023.32
2018-01-30T10:42:21.834Z,1023.35
2018-01-30T10:43:21.844Z,1023.34
2018-01-30T10:44:21.847Z,1023.24
2018-01-30T10:45:21.850Z,1023.26
2018-01-30T10:46:21.852Z,1023.28
2018-01-30T10:47:21.860Z,1023.30
2018-01-30T10:48:21.863Z,1023.28
2018-01-30T10:49:21.867Z,1023.44
2018-01-30T10:50:21.869Z,1023.32
2018-01-30T10:51:21.876Z,1023.26
2018-01-30T10:52:21.877Z,1023.21
2018-01-30T10:53:21.881Z,1023.22
2018-01-30T10:54:21.887Z,1023.25
2018-01-30T10:55:21.885Z,1023.25
2018-01-30T10:56:21.892Z,1023.28
2018-01-30T10:57:21.900Z,1023.26
2018-01-30T10:58:21.904Z,1023.29
2018-01-30T10:59:21.904Z,1023.30
2018-01-30T11:00:21.911Z,1023.34
2018-01-30T11:01:21.916Z,1023.23
2018-01-30T11:02:21.915Z,1023.25
2018-01-30T11:03:21.920Z,1023.26
2018-01-30T11:04:21.943Z,1023.23
2018-01-30T11:05:21.928Z,1023.17
2018-01-30T11:06:21.932Z,1023.15
2018-01-30T11:07:21.935Z,1023.14
2018-01-30T11:08:21.948Z,1023.20
2018-01-30T11:09:21.943Z,1023.16
2018-01-30T11:10:21.946Z,1023.14
2018-01-30T11:11:21.954Z,1023.17
2018-01-30T11:12:21.960Z,1023.15
2018-01-30T11:13:21.961Z,1023.20
2018-01-30T11:14:21.963Z,1023.19
2018-01-30T11:15:21.967Z,1023.14
2018-01-30T11:16:21.970Z,1023.14
2018-01-30T11:17:21.979Z,1023.10
2018-01-30T11:18:21.977Z,1023.17
2018-01-30T11:19:21.993Z,1023.20
2018-01-30T11:20:21.987Z,1023.18
2018-01-30T11:21:21.994Z,1023.19
2018-01-30T11:22:21.989Z,1023.17
2018-01-30T11:23:22.003Z,1023.15
2018-01-30T11:24:22.002Z,1023.08
2018-01-30T11:25:22.012Z,1023.13
2018-01-30T11:26:22.010Z,1023.09
2018-01-30T11:27:22.016Z,1023.10
2018-01-30T11:28:22.018Z,1023.09
2018-01-30T11:29:22.023Z,1023.11
2018-01-30T11:30:22.022Z,1023.06
2018-01-30T11:31:22.034Z,1023.05
2018-01-30T11:32:22.036Z,1023.06
2018-01-30T11:33:22.043Z,1023.08
2018-01-30T11:34:22.044Z,1023.06
2018-01-30T11:35:22.044Z,1023.07
2018-01-30T11:36:22.057Z,1023.05
2018-01-30T11:37:22.063Z,1023.06
2018-01-30T11:38:22.061Z,1023.06
2018-01-30T11:39:22.067Z,1023.06
2018-01-30T11:40:22.069Z,1023.09
2018-01-30T11:41:22.069Z,1023.07
2018-01-30T11:42:22.076Z,1023.16
2018-01-30T11:43:22.073Z,1023.12
2018-01-30T11:44:22.085Z,1023.08
2018-01-30T11:45:22.085Z,1023.08
2018-01-30T11:46:22.093Z,1023.11
2018-01-30T11:47:22.091Z,1023.06
2018-01-30T11:48:22.095Z,1023.03
2018-01-30T11:49:22.104Z,1023.05
2018-01-30T11:50:22.105Z,1022.98
2018-01-30T11:51:22.113Z,1022.95
2018-01-30T11:52:22.117Z,1022.98
2018-01-30T11:53:22.126Z,1023.01
2018-01-30T11:54:22.122Z,1022.94
2018-01-30T11:55:22.123Z,1022.95
2018-01-30T11:56:22.130Z,1022.92
2018-01-30T11:57:22.131Z,1022.86
2018-01-30T11:58:22.137Z,1022.89
2018-01-30T11:59:22.183Z,1022.90
2018-01-30T12:00:22.145Z,1022.90
2018-01-30T12:01:22.146Z,1022.88
2018-01-30T12:02:22.147Z,1022.84
2018-01-30T12:03:22.157Z,1022.85
2018-01-30T12:04:22.163Z,1022.82
2018-01-30T12:05:22.168Z,1022.73